Time;durP1;ratioP1;P1;durP2;ratioP2;P2;SDS_P1;SDS_P2;PMS_P1;PMS_P2;Temp;Humidity;BMP_temperature;BMP_pressure;BME280_temperature;BME280_humidity;BME280_pressure;Samples;Min_cycle;Max_cycle;Signal;HPM_P1;HPM_P2
2021/07/08 00:37:31;;;;;;;4.60;3.10;;;19.30;99.90;;;19.24;93.81;98445.94;5107489;27;21194;-68
2021/07/08 00:40:02;;;;;;;2.70;2.50;;;19.30;99.90;;;19.26;94.94;98449.25;5110142;27;20644;-68
2021/07/08 00:42:30;;;;;;;2.60;2.40;;;19.30;99.90;;;19.26;93.93;98449.25;5109238;27;20732;-68
2021/07/08 00:44:59;;;;;;;3.00;2.20;;;19.30;99.90;;;19.25;94.68;98445.78;5124863;27;20733;-68
2021/07/08 00:47:27;;;;;;;2.93;2.40;;;19.30;99.90;;;19.28;93.51;98444.66;5109006;27;20771;-68
2021/07/08 00:49:56;;;;;;;2.77;2.50;;;19.30;99.90;;;19.31;93.84;98441.72;5112381;27;20637;-68
2021/07/08 00:52:25;;;;;;;2.90;2.53;;;19.30;99.90;;;19.30;94.05;98438.22;5107275;27;20686;-69
2021/07/08 00:54:55;;;;;;;3.07;2.33;;;19.30;99.90;;;19.34;93.30;98441.44;5113589;27;20659;-68
2021/07/08 00:57:23;;;;;;;4.47;2.80;;;19.30;99.90;;;19.35;93.96;98438.63;5106153;27;20641;-68
2021/07/08 00:59:54;;;;;;;4.10;2.50;;;19.30;99.90;;;19.35;93.80;98427.19;5111637;27;20752;-68
2021/07/08 01:02:25;;;;;;;4.00;2.80;;;19.30;99.90;;;19.37;95.17;98427.91;5093116;27;20640;-68
2021/07/08 01:04:53;;;;;;;4.07;2.77;;;19.40;99.90;;;19.37;93.70;98429.53;5085173;28;21117;-68
2021/07/08 01:07:24;;;;;;;3.10;2.70;;;19.40;99.90;;;19.37;93.88;98419.97;5109098;27;20679;-68
2021/07/08 01:09:54;;;;;;;3.80;2.90;;;19.40;99.90;;;19.38;95.59;98419.81;5101226;27;20642;-68
2021/07/08 01:12:23;;;;;;;5.23;2.77;;;19.40;99.90;;;19.38;95.33;98411.88;5110230;27;20671;-68
2021/07/08 01:14:51;;;;;;;3.17;2.50;;;19.40;99.90;;;19.38;94.68;98410.06;5109032;27;20646;-68
2021/07/08 01:17:21;;;;;;;3.00;2.70;;;19.40;99.90;;;19.37;93.99;98409.38;5108377;28;20652;-68
2021/07/08 01:19:50;;;;;;;3.57;2.90;;;19.40;99.90;;;19.36;94.81;98416.47;5105183;27;20697;-68
2021/07/08 01:22:20;;;;;;;5.40;2.93;;;19.40;99.90;;;19.34;95.61;98409.69;5109356;27;20648;-68
2021/07/08 01:24:49;;;;;;;3.20;2.60;;;19.40;99.90;;;19.33;95.84;98405.38;5108939;27;20645;-68
2021/07/08 01:27:17;;;;;;;3.10;2.70;;;19.40;99.90;;;19.31;95.42;98394.94;5108910;27;20641;-68
2021/07/08 01:29:46;;;;;;;3.90;2.80;;;19.30;99.90;;;19.30;94.53;98397.72;5117245;27;20726;-68
2021/07/08 01:32:15;;;;;;;3.50;3.20;;;19.30;99.90;;;19.29;95.49;98391.63;5107241;27;20654;-68
2021/07/08 01:34:44;;;;;;;4.50;3.07;;;19.30;99.90;;;19.27;95.98;98387.44;5118348;27;21211;-68
2021/07/08 01:37:12;;;;;;;4.50;3.60;;;19.30;99.90;;;19.27;95.61;98387.44;5111030;27;20635;-68
2021/07/08 01:39:42;;;;;;;4.80;3.30;;;19.30;99.90;;;19.23;95.23;98376.34;5109618;27;20671;-68
2021/07/08 01:42:11;;;;;;;3.57;2.90;;;19.30;99.90;;;19.23;94.09;98371.06;5105202;27;21087;-68
2021/07/08 01:44:40;;;;;;;5.23;3.00;;;19.30;99.90;;;19.21;95.36;98356.31;5105679;27;20687;-68
2021/07/08 01:47:09;;;;;;;5.23;3.37;;;19.20;99.90;;;19.18;95.30;98344.19;5087219;27;20759;-68
2021/07/08 01:49:37;;;;;;;7.13;3.30;;;19.20;99.90;;;19.17;94.31;98347.00;5102589;27;21039;-68
2021/07/08 01:52:07;;;;;;;2.90;2.70;;;19.20;99.90;;;19.15;95.19;98341.03;5110766;27;20676;-68
2021/07/08 01:54:36;;;;;;;3.50;2.90;;;19.20;99.90;;;19.11;94.36;98345.81;5105431;27;20651;-68
2021/07/08 01:57:06;;;;;;;4.63;2.83;;;19.10;99.90;;;19.09;94.43;98331.06;5089157;28;20653;-68
2021/07/08 01:59:35;;;;;;;4.90;3.47;;;19.10;99.90;;;19.05;94.20;98340.31;5107432;28;20699;-68
2021/07/08 02:02:05;;;;;;;5.70;2.90;;;19.10;99.90;;;19.05;94.79;98354.34;5109374;27;20649;-68
2021/07/08 02:09:30;;;;;;;3.90;2.93;;;19.10;99.90;;;19.09;95.32;98365.44;5107910;27;20935;-68
2021/07/08 02:12:15;;;;;;;3.50;3.13;;;19.10;99.90;;;19.10;95.81;98352.06;5102959;27;20668;-68
2021/07/08 02:14:43;;;;;;;6.33;3.20;;;19.10;99.90;;;19.12;94.82;98351.91;5112693;27;20650;-68
2021/07/08 02:17:12;;;;;;;3.80;3.17;;;19.10;99.90;;;19.12;96.19;98349.28;5115524;27;20649;-68
2021/07/08 02:19:40;;;;;;;4.57;3.50;;;19.10;99.90;;;19.15;95.99;98351.63;5109128;27;20671;-68
2021/07/08 02:22:09;;;;;;;4.13;3.40;;;19.10;99.90;;;19.14;96.09;98342.88;5109725;27;21237;-68
2021/07/08 02:24:37;;;;;;;4.00;3.60;;;19.10;99.90;;;19.15;95.13;98335.75;5108126;27;21249;-68
2021/07/08 02:27:07;;;;;;;4.00;3.00;;;19.20;99.90;;;19.12;95.38;98317.53;5090451;27;20644;-68
2021/07/08 02:29:38;;;;;;;3.50;3.20;;;19.10;99.90;;;19.05;95.94;98306.75;5109024;27;21471;-68
2021/07/08 02:32:08;;;;;;;6.80;3.40;;;19.10;99.90;;;19.00;95.94;98301.06;5107293;28;20666;-68
2021/07/08 02:34:37;;;;;;;6.50;4.53;;;19.00;99.90;;;18.95;95.03;98298.00;5104851;28;20654;-68
2021/07/08 02:37:07;;;;;;;3.80;3.40;;;19.00;99.90;;;18.95;95.03;98313.06;5107540;28;20747;-68
2021/07/08 02:39:36;;;;;;;3.57;2.93;;;19.00;99.90;;;18.97;95.54;98317.22;5103112;28;21029;-68
2021/07/08 02:42:05;;;;;;;6.20;4.43;;;19.00;99.90;;;19.01;96.84;98329.16;5111890;28;21252;-68
2021/07/08 02:44:35;;;;;;;5.57;3.60;;;19.00;99.90;;;19.04;95.72;98341.28;5110452;28;21052;-68
2021/07/08 02:47:05;;;;;;;3.97;3.63;;;19.00;99.90;;;19.06;96.92;98339.31;5108492;28;20673;-69
2021/07/08 02:49:33;;;;;;;3.93;3.53;;;19.10;99.90;;;19.08;96.20;98346.09;5110375;28;20835;-68
2021/07/08 02:52:02;;;;;;;4.40;3.50;;;19.10;99.90;;;19.10;95.86;98344.13;5105251;28;20652;-68
2021/07/08 02:54:30;;;;;;;4.57;4.00;;;19.10;99.90;;;19.08;95.72;98342.66;5094275;28;21250;-68
2021/07/08 02:56:59;;;;;;;6.50;3.77;;;19.10;99.90;;;19.06;96.82;98347.22;5108307;28;20752;-68
2021/07/08 02:59:27;;;;;;;3.70;3.40;;;19.10;99.90;;;19.08;95.69;98347.94;5108612;27;21072;-68
2021/07/08 03:01:57;;;;;;;6.33;3.97;;;19.10;99.90;;;19.05;96.03;98340.31;5111247;27;20648;-68
2021/07/08 03:04:26;;;;;;;5.30;3.80;;;19.00;99.90;;;19.04;95.31;98349.19;5111550;27;20775;-68
2021/07/08 03:06:54;;;;;;;4.10;3.70;;;19.00;99.90;;;19.03;95.56;98368.69;5113851;27;21023;-68
2021/07/08 03:09:23;;;;;;;9.70;4.43;;;19.00;99.90;;;19.02;96.83;98381.09;5107505;27;20645;-68
2021/07/08 03:11:51;;;;;;;6.37;4.03;;;19.00;99.90;;;19.03;97.19;98384.56;5108231;27;20773;-68
2021/07/08 03:14:20;;;;;;;4.07;3.67;;;19.00;99.90;;;19.03;96.98;98373.97;5109712;27;20639;-68
2021/07/08 03:16:49;;;;;;;4.10;3.70;;;19.00;99.90;;;19.03;95.23;98379.25;5105688;27;21049;-68
2021/07/08 03:19:19;;;;;;;4.50;4.10;;;19.00;99.90;;;19.04;95.41;98386.22;5113434;27;20703;-68
2021/07/08 03:21:47;;;;;;;5.77;4.13;;;19.10;99.90;;;19.03;96.87;98387.19;5114897;27;20696;-68
2021/07/08 03:24:16;;;;;;;5.00;4.33;;;19.00;99.90;;;19.03;96.41;98389.84;5122285;27;20655;-68
2021/07/08 03:26:45;;;;;;;4.23;3.93;;;19.00;99.90;;;19.03;95.67;98389.84;5109455;27;21193;-68
2021/07/08 03:29:13;;;;;;;5.97;4.40;;;19.10;99.90;;;19.03;95.92;98400.41;5109734;27;20671;-68
2021/07/08 03:31:42;;;;;;;5.17;3.90;;;19.00;99.90;;;19.00;96.08;98406.81;5091955;27;20653;-68
2021/07/08 03:34:11;;;;;;;5.03;4.00;;;19.00;99.90;;;19.01;95.86;98408.50;5112291;27;20701;-68
2021/07/08 03:36:41;;;;;;;10.30;4.17;;;19.00;99.90;;;18.99;95.84;98399.88;5108315;27;20645;-68
2021/07/08 03:39:09;;;;;;;11.70;4.93;;;19.00;99.90;;;19.00;95.51;98408.63;5112237;27;20648;-68
2021/07/08 03:41:38;;;;;;;4.47;4.07;;;19.00;99.90;;;19.01;96.65;98420.88;5109406;27;20680;-68
2021/07/08 03:44:07;;;;;;;6.83;3.97;;;19.00;99.90;;;19.01;96.10;98413.78;5113085;27;20640;-68
2021/07/08 03:46:36;;;;;;;8.37;4.80;;;19.00;99.90;;;19.00;96.07;98417.41;5112211;27;20652;-68
2021/07/08 03:49:05;;;;;;;5.13;4.23;;;19.00;99.90;;;18.99;97.09;98410.44;5106522;27;20732;-68
2021/07/08 03:51:33;;;;;;;4.53;4.00;;;19.00;99.90;;;18.98;95.91;98414.06;5112142;27;20639;-68
2021/07/08 03:54:03;;;;;;;5.40;4.43;;;19.00;99.90;;;18.97;96.24;98404.47;5112623;27;20743;-68
2021/07/08 03:56:32;;;;;;;7.40;4.20;;;19.00;99.90;;;18.96;95.70;98415.19;5113815;27;20640;-68
2021/07/08 03:59:00;;;;;;;6.67;4.40;;;19.00;99.90;;;18.93;96.54;98423.44;5093139;28;20644;-68
2021/07/08 04:01:29;;;;;;;5.57;5.07;;;19.00;99.90;;;18.93;97.30;98431.34;5113474;27;20663;-68
2021/07/08 04:03:58;;;;;;;7.20;3.63;;;19.00;99.90;;;18.91;96.84;98420.94;5109994;27;21012;-68
2021/07/08 04:06:26;;;;;;;8.53;4.37;;;19.00;99.90;;;18.93;96.94;98426.06;5113252;27;20848;-68
2021/07/08 04:08:55;;;;;;;4.50;4.10;;;19.00;99.90;;;18.93;97.19;98426.06;5089722;28;20711;-68
2021/07/08 04:11:25;;;;;;;5.17;4.17;;;19.00;99.90;;;18.94;95.62;98423.28;5107012;27;21250;-68
2021/07/08 04:13:53;;;;;;;4.90;4.17;;;19.00;99.90;;;18.98;96.68;98418.53;5115745;27;20642;-68
2021/07/08 04:16:22;;;;;;;7.43;3.87;;;19.00;99.90;;;18.96;95.91;98418.66;5109053;27;20642;-68
2021/07/08 04:18:51;;;;;;;6.90;4.47;;;19.00;99.90;;;18.96;96.34;98417.84;5109664;27;20652;-68
2021/07/08 04:21:19;;;;;;;7.40;4.23;;;19.00;99.90;;;18.94;97.02;98418.00;5114013;27;21002;-68
2021/07/08 04:23:48;;;;;;;8.90;4.40;;;19.00;99.90;;;18.92;96.95;98409.34;5124426;27;20740;-68
2021/07/08 04:26:18;;;;;;;4.23;3.83;;;19.00;99.90;;;18.92;96.05;98411.19;5111449;27;20656;-68
2021/07/08 04:28:48;;;;;;;3.93;3.63;;;19.00;99.90;;;18.92;96.15;98413.81;5112635;27;20650;-68
2021/07/08 04:31:17;;;;;;;6.77;4.20;;;19.00;99.90;;;18.91;95.65;98406.84;5101797;27;21023;-68
2021/07/08 04:33:46;;;;;;;6.47;3.83;;;19.00;99.90;;;18.93;97.08;98404.91;5090878;28;20634;-68
2021/07/08 04:36:15;;;;;;;4.40;3.80;;;19.00;99.90;;;18.95;96.57;98392.38;5107826;27;20628;-68
2021/07/08 04:38:46;;;;;;;4.07;3.63;;;19.00;99.90;;;18.98;96.26;98392.91;5110930;27;21086;-68
2021/07/08 04:41:15;;;;;;;5.60;3.97;;;19.00;99.90;;;19.02;95.51;98398.78;5113196;27;20707;-68
2021/07/08 04:43:43;;;;;;;5.63;4.10;;;19.00;99.90;;;19.06;95.33;98398.31;5096579;27;21209;-68
2021/07/08 04:46:13;;;;;;;4.57;4.17;;;19.10;99.90;;;19.11;95.97;98395.22;5107265;27;20674;-68
2021/07/08 04:48:43;;;;;;;3.73;3.43;;;19.10;99.90;;;19.11;95.59;98382.84;5109555;27;20648;-68
2021/07/08 04:51:12;;;;;;;4.50;3.87;;;19.10;99.90;;;19.17;95.97;98376.09;5088676;27;20719;-67
2021/07/08 04:53:41;;;;;;;5.67;4.10;;;19.20;99.90;;;19.17;95.57;98387.53;5108212;27;20644;-67
2021/07/08 04:56:09;;;;;;;4.07;3.67;;;19.20;99.90;;;19.11;95.60;98382.84;5107082;27;20698;-67
2021/07/08 04:58:38;;;;;;;3.83;3.53;;;19.10;99.90;;;19.11;95.68;98374.03;5089419;27;20633;-68
2021/07/08 05:01:06;;;;;;;4.07;3.63;;;19.10;99.90;;;19.10;94.46;98369.75;5112684;27;21046;-67
2021/07/08 05:03:36;;;;;;;4.70;4.20;;;19.10;99.90;;;19.12;94.50;98363.31;5128836;27;20646;-68
2021/07/08 05:06:05;;;;;;;4.10;3.80;;;19.10;99.90;;;19.11;95.39;98363.47;5105123;28;20750;-68
2021/07/08 05:08:34;;;;;;;4.20;3.80;;;19.10;99.90;;;19.12;95.15;98373.06;5105828;28;20652;-68
2021/07/08 05:11:02;;;;;;;5.23;3.87;;;19.10;99.90;;;19.17;93.89;98368.16;5105561;28;20916;-68
2021/07/08 05:13:31;;;;;;;4.20;3.80;;;19.10;99.90;;;19.18;94.98;98367.19;5087972;28;20661;-68
2021/07/08 05:16:00;;;;;;;4.23;3.83;;;19.20;99.90;;;19.21;94.05;98359.78;5101791;28;21286;-68
2021/07/08 05:18:29;;;;;;;5.57;4.50;;;19.20;99.90;;;19.28;94.58;98352.91;5089022;28;20666;-68
2021/07/08 05:20:59;;;;;;;6.70;5.03;;;19.20;99.90;;;19.34;95.12;98360.22;5105038;28;20741;-68
2021/07/08 05:23:30;;;;;;;5.30;4.80;;;19.30;99.90;;;19.38;94.12;98358.97;5082724;28;21245;-68
2021/07/08 05:26:02;;;;;;;7.63;4.93;;;19.30;99.90;;;19.40;95.82;98363.09;5104279;27;20705;-67
2021/07/08 05:28:31;;;;;;;6.40;5.50;;;19.40;99.90;;;19.44;94.38;98359.16;5105113;28;20679;-67
2021/07/08 05:31:00;;;;;;;6.27;4.47;;;19.40;99.90;;;19.46;94.69;98359.84;5102345;28;20653;-68
2021/07/08 05:33:29;;;;;;;7.33;4.80;;;19.40;99.90;;;19.48;94.03;98352.59;5082183;28;20644;-67
2021/07/08 05:35:58;;;;;;;5.77;4.30;;;19.40;99.90;;;19.53;94.30;98352.97;5103257;28;20656;-67
2021/07/08 05:38:27;;;;;;;4.80;4.40;;;19.50;99.90;;;19.58;94.57;98363.91;5089123;28;20649;-67
2021/07/08 05:40:56;;;;;;;5.73;4.73;;;19.50;99.90;;;19.66;95.44;98366.63;5106732;28;20664;-67
2021/07/08 05:43:24;;;;;;;4.10;3.70;;;19.60;99.90;;;19.75;93.07;98368.34;5105624;28;20656;-67
2021/07/08 05:45:53;;;;;;;6.63;4.47;;;19.70;99.90;;;19.83;93.53;98359.63;5107142;28;20646;-67
2021/07/08 05:48:21;;;;;;;5.40;4.80;;;19.70;99.90;;;19.91;95.14;98364.03;5104528;28;20664;-67
2021/07/08 05:50:50;;;;;;;9.33;5.20;;;19.80;99.90;;;19.98;96.34;98359.78;5107856;28;21000;-67
2021/07/08 05:53:20;;;;;;;5.33;4.83;;;19.90;99.90;;;20.06;94.89;98361.66;5104566;28;21224;-68
2021/07/08 05:55:49;;;;;;;4.83;4.43;;;20.00;99.90;;;20.16;94.56;98378.25;5082327;28;21423;-68
2021/07/08 05:58:17;;;;;;;3.93;3.53;;;20.10;99.90;;;20.21;93.52;98386.56;5069365;28;20656;-68
2021/07/08 06:00:47;;;;;;;4.30;3.90;;;20.10;99.90;;;20.24;92.75;98394.22;5100721;28;21204;-68
2021/07/08 06:03:17;;;;;;;5.07;3.50;;;20.20;99.90;;;20.26;91.44;98405.47;5102315;28;20663;-68
2021/07/08 06:05:46;;;;;;;3.87;3.47;;;20.20;99.90;;;20.29;91.20;98421.06;5102507;28;20769;-68
2021/07/08 06:08:14;;;;;;;4.60;4.20;;;20.20;99.90;;;20.32;91.58;98433.00;5083316;28;20756;-68
2021/07/08 06:10:44;;;;;;;5.70;5.17;;;20.30;99.90;;;20.36;93.91;98438.84;5105802;27;21012;-67
2021/07/08 06:13:13;;;;;;;6.60;5.20;;;20.30;99.90;;;20.39;92.96;98452.59;5085571;28;20643;-68
2021/07/08 06:15:42;;;;;;;5.60;4.70;;;20.40;99.90;;;20.42;93.47;98454.94;5116246;27;21213;-67
2021/07/08 06:18:10;;;;;;;4.63;4.23;;;20.40;99.90;;;20.44;95.12;98460.06;5104823;28;20648;-67
2021/07/08 06:20:39;;;;;;;5.00;4.60;;;20.40;99.90;;;20.47;93.62;98473.84;5103289;28;20652;-68
2021/07/08 06:23:07;;;;;;;5.30;4.80;;;20.50;99.90;;;20.51;94.78;98485.81;5101829;27;20643;-68
2021/07/08 06:25:36;;;;;;;5.70;5.03;;;20.50;99.90;;;20.52;93.60;98487.47;5101157;28;20672;-68
2021/07/08 06:32:22;;;;;;;5.00;4.60;;;20.50;99.90;;;20.62;93.75;98495.31;5105638;28;20637;-70
2021/07/08 06:34:51;;;;;;;6.60;6.00;;;20.60;99.90;;;20.70;93.63;98504.16;5105900;28;20626;-70
2021/07/08 06:37:20;;;;;;;10.90;9.43;;;20.70;99.90;;;20.77;94.44;98512.34;5103683;28;20651;-70
2021/07/08 06:39:53;;;;;;;6.90;5.77;;;20.70;99.90;;;20.86;93.68;98514.88;5068885;28;21018;-71
2021/07/08 06:42:22;;;;;;;7.23;5.87;;;20.80;99.90;;;20.94;92.78;98518.41;5106723;28;21291;-70
2021/07/08 06:44:50;;;;;;;5.87;5.27;;;20.90;99.90;;;21.07;92.26;98517.97;5102887;28;20656;-71
2021/07/08 06:47:20;;;;;;;9.90;5.00;;;21.00;99.90;;;21.25;92.29;98513.41;5101669;28;21096;-71
2021/07/08 06:49:50;;;;;;;5.83;5.23;;;21.10;99.90;;;21.43;90.84;98513.13;5081820;28;20655;-69
2021/07/08 06:52:19;;;;;;;5.87;5.37;;;21.20;99.90;;;21.57;90.18;98509.03;5085851;28;20655;-70
2021/07/08 06:54:48;;;;;;;6.03;5.53;;;21.40;99.90;;;21.56;90.26;98497.59;5097449;28;20722;-70
2021/07/08 06:57:16;;;;;;;5.27;4.77;;;21.40;99.90;;;21.63;89.79;98492.47;5115142;28;20656;-70
2021/07/08 06:59:45;;;;;;;5.70;4.97;;;21.50;99.90;;;21.70;89.17;98482.84;5103207;28;20651;-70
2021/07/08 07:02:13;;;;;;;5.70;5.20;;;21.50;99.90;;;21.80;89.13;98481.72;5100192;28;21205;-70
2021/07/08 07:04:42;;;;;;;6.17;5.57;;;21.60;99.90;;;21.85;88.88;98482.03;5105238;28;20647;-71
2021/07/08 07:07:14;;;;;;;6.10;5.50;;;21.70;99.90;;;21.89;88.72;98486.88;5103594;28;20666;-70
2021/07/08 07:09:43;;;;;;;6.37;5.33;;;21.70;99.90;;;22.00;88.21;98491.03;5104054;28;20728;-70
2021/07/08 07:12:13;;;;;;;6.00;5.50;;;21.80;99.90;;;22.07;87.37;98481.38;5086723;28;21079;-70
2021/07/08 07:14:41;;;;;;;8.23;5.57;;;21.90;99.90;;;22.08;85.83;98486.53;5105532;28;20980;-70
2021/07/08 07:17:10;;;;;;;5.23;4.83;;;22.00;99.90;;;22.03;85.87;98480.88;5118255;28;20679;-71
2021/07/08 07:19:38;;;;;;;5.90;5.30;;;21.90;99.90;;;21.94;85.71;98470.44;5119616;27;20740;-71
2021/07/08 07:22:07;;;;;;;4.90;4.50;;;21.90;99.90;;;21.83;85.63;98462.75;5083594;28;20662;-70
2021/07/08 07:24:37;;;;;;;5.30;4.80;;;21.80;99.90;;;21.69;85.43;98455.44;5103667;28;20772;-70
2021/07/08 07:27:06;;;;;;;4.80;4.30;;;21.70;99.90;;;21.58;85.22;98447.81;5098888;28;20700;-70
2021/07/08 07:29:35;;;;;;;5.50;4.90;;;21.60;99.90;;;21.50;85.56;98461.09;5085833;28;20683;-71
2021/07/08 07:32:04;;;;;;;4.90;4.50;;;21.50;99.90;;;21.45;86.83;98458.06;5114785;28;20655;-70
2021/07/08 07:34:32;;;;;;;7.00;4.40;;;21.50;99.90;;;21.41;86.32;98451.41;5082637;28;21239;-70
2021/07/08 07:37:02;;;;;;;4.53;4.13;;;21.40;99.90;;;21.40;86.61;98449.72;5105890;28;20700;-70
2021/07/08 07:39:31;;;;;;;5.57;5.07;;;21.40;99.90;;;21.40;87.44;98448.91;5085848;28;20646;-71
2021/07/08 07:42:01;;;;;;;5.43;4.83;;;21.40;99.90;;;21.39;87.43;98445.44;5103130;28;21311;-70
2021/07/08 07:44:29;;;;;;;5.33;4.93;;;21.40;99.90;;;21.40;87.38;98448.91;5085457;28;20651;-70
2021/07/08 07:46:58;;;;;;;5.67;4.90;;;21.40;99.90;;;21.36;88.07;98448.41;5106820;27;20698;-71
2021/07/08 07:49:27;;;;;;;4.83;4.43;;;21.30;99.90;;;21.34;87.37;98455.69;5104494;28;20661;-70
2021/07/08 07:51:55;;;;;;;4.90;4.40;;;21.30;99.90;;;21.36;87.73;98451.06;5118300;27;21280;-71
2021/07/08 07:54:24;;;;;;;4.90;4.50;;;21.30;99.90;;;21.38;88.36;98454.38;5106639;27;20755;-70
2021/07/08 07:56:52;;;;;;;7.43;6.67;;;21.30;99.90;;;21.40;88.89;98449.72;5105389;27;20746;-70
2021/07/08 07:59:22;;;;;;;6.40;5.53;;;21.40;99.90;;;21.44;89.35;98458.19;5107214;28;20708;-70
2021/07/08 08:01:51;;;;;;;5.43;4.90;;;21.40;99.90;;;21.45;89.64;98457.22;5099881;28;20657;-70
2021/07/08 08:04:20;;;;;;;5.13;4.60;;;21.40;99.90;;;21.45;90.27;98458.06;5104473;28;20697;-70
2021/07/08 08:09:35;;;;;;;6.33;4.83;;;21.50;99.90;;;21.54;89.82;98469.53;5100617;27;20651;-70
2021/07/08 08:12:04;;;;;;;5.60;5.10;;;21.50;99.90;;;21.60;90.70;98460.94;5118715;27;20674;-67
2021/07/08 08:14:34;;;;;;;5.00;4.50;;;21.60;99.90;;;21.63;89.79;98463.25;5104677;27;20670;-68
2021/07/08 08:17:04;;;;;;;6.10;5.10;;;21.60;99.90;;;21.68;89.53;98456.47;5089930;28;21269;-64
2021/07/08 08:19:39;;;;;;;6.53;5.23;;;21.60;99.90;;;21.71;89.41;98463.25;5118932;27;20685;-66
2021/07/08 08:22:10;;;;;;;5.30;4.47;;;21.60;99.90;;;21.71;88.51;98471.22;5103620;27;20655;-65
2021/07/08 08:24:40;;;;;;;8.37;4.80;;;21.60;99.90;;;21.69;87.77;98473.22;5109327;27;20805;-63
2021/07/08 08:27:09;;;;;;;5.13;4.63;;;21.70;99.90;;;21.73;88.75;98479.88;5105868;28;20660;-67
2021/07/08 08:29:40;;;;;;;5.20;4.80;;;21.70;99.90;;;21.73;87.93;98483.34;5087652;28;20658;-73
2021/07/08 08:32:10;;;;;;;5.20;4.70;;;21.70;99.90;;;21.76;89.55;98483.03;5089601;28;20735;-71
2021/07/08 08:34:39;;;;;;;5.90;5.30;;;21.70;99.90;;;21.78;87.89;98473.06;5085253;28;21110;-72
2021/07/08 08:37:08;;;;;;;4.90;4.50;;;21.80;99.90;;;21.81;87.42;98465.63;5105389;27;20646;-70
2021/07/08 08:39:37;;;;;;;5.20;4.80;;;21.80;99.90;;;21.86;87.30;98465.94;5110501;27;20741;-68
2021/07/08 08:42:12;;;;;;;6.63;4.97;;;21.80;99.90;;;21.87;86.58;98464.09;5105265;28;21290;-74
2021/07/08 08:44:43;;;;;;;6.23;5.63;;;21.80;99.90;;;21.88;87.24;98458.63;5088795;27;20781;-74
2021/07/08 08:47:12;;;;;;;5.17;4.70;;;21.80;99.90;;;21.90;86.50;98461.94;5085621;28;21100;-74
2021/07/08 08:49:42;;;;;;;5.03;4.63;;;21.80;99.90;;;21.97;87.24;98451.50;5116540;27;20802;-74
2021/07/08 08:52:13;;;;;;;7.90;4.90;;;21.90;99.90;;;22.07;86.83;98452.13;5107256;28;20685;-73
2021/07/08 08:54:43;;;;;;;13.33;11.90;;;22.00;99.90;;;22.18;87.25;98470.44;5087293;28;20670;-76
2021/07/08 08:57:12;;;;;;;5.17;4.77;;;22.10;99.90;;;22.33;87.05;98481.06;5108555;27;20679;-77
2021/07/08 08:59:42;;;;;;;5.63;5.13;;;22.20;99.90;;;22.44;85.99;98490.53;5103815;28;20733;-77
2021/07/08 09:02:17;;;;;;;5.37;4.87;;;22.20;99.90;;;22.56;85.77;98484.69;5105926;27;20696;-77
2021/07/08 09:04:50;;;;;;;4.47;4.07;;;22.40;99.90;;;22.68;85.46;98485.16;5103968;27;20785;-77
2021/07/08 09:07:22;;;;;;;4.83;4.40;;;22.50;99.90;;;22.76;85.68;98484.16;5106239;28;20655;-77
2021/07/08 09:09:53;;;;;;;5.50;4.87;;;22.60;99.90;;;22.80;84.65;98493.44;5119941;27;21062;-77
2021/07/08 09:12:24;;;;;;;5.00;4.60;;;22.70;99.90;;;22.83;84.59;98484.28;5120893;27;20644;-77
2021/07/08 09:15:15;;;;;;;4.87;4.47;;;22.70;99.90;;;22.89;83.33;98480.94;5089187;28;21243;-76
2021/07/08 09:17:45;;;;;;;4.60;4.20;;;22.70;99.90;;;22.96;82.83;98489.94;5108025;27;20685;-77
2021/07/08 09:20:19;;;;;;;4.70;4.17;;;22.80;99.90;;;23.09;83.03;98490.22;5086468;28;20679;-76
2021/07/08 09:22:49;;;;;;;4.30;3.90;;;22.90;99.90;;;23.19;82.78;98503.16;5118429;27;21066;-77
2021/07/08 09:25:26;;;;;;;4.27;3.90;;;23.00;99.90;;;23.28;81.36;98515.41;5101974;28;20672;-76
2021/07/08 09:28:22;;;;;;;3.43;3.13;;;23.10;99.90;;;23.34;80.87;98511.25;5091457;27;20657;-76
2021/07/08 09:31:07;;;;;;;4.13;3.70;;;23.20;99.90;;;23.39;81.82;98512.38;5103081;28;20647;-76
2021/07/08 09:33:38;;;;;;;4.77;3.47;;;23.20;99.90;;;23.46;81.98;98500.03;5101123;27;20653;-76
2021/07/08 09:36:13;;;;;;;6.37;3.50;;;23.30;99.90;;;23.49;81.28;98504.19;5088944;27;20737;-76
2021/07/08 09:38:52;;;;;;;4.10;3.20;;;23.30;99.90;;;23.47;80.47;98512.34;5066173;28;20998;-76
2021/07/08 09:41:22;;;;;;;3.30;3.00;;;23.30;99.90;;;23.58;79.95;98506.63;5085802;27;20718;-76
2021/07/08 09:43:51;;;;;;;4.63;2.97;;;23.40;99.90;;;23.72;80.78;98511.22;5104840;27;21005;-76
2021/07/08 09:46:36;;;;;;;3.57;2.70;;;23.50;99.90;;;23.90;79.28;98503.78;5114094;27;20683;-76
2021/07/08 09:49:07;;;;;;;3.33;2.40;;;23.60;99.90;;;23.99;76.67;98492.06;5106124;28;21233;-75
2021/07/08 09:51:36;;;;;;;3.00;2.70;;;23.80;98.10;;;24.04;77.46;98481.69;5087731;28;20643;-75
2021/07/08 09:54:07;;;;;;;2.83;2.50;;;23.80;97.70;;;24.15;76.43;98485.59;5085188;28;20628;-75
2021/07/08 09:56:45;;;;;;;2.30;2.10;;;23.90;97.60;;;24.25;76.80;98485.31;5083693;28;20658;-76
2021/07/08 09:59:19;;;;;;;2.40;2.20;;;24.00;97.60;;;24.31;76.57;98489.94;5119758;27;20652;-75
2021/07/08 10:01:59;;;;;;;2.20;2.00;;;24.10;97.10;;;24.37;74.09;98486.59;5071144;28;21257;-75
2021/07/08 10:04:29;;;;;;;1.70;1.50;;;24.20;95.70;;;24.41;73.31;98494.06;5101010;28;21297;-76
2021/07/08 10:06:57;;;;;;;2.07;1.63;;;24.20;94.40;;;24.42;72.08;98495.72;5115121;27;21216;-76
2021/07/08 10:09:26;;;;;;;1.80;1.60;;;24.20;93.40;;;24.49;74.45;98494.00;5091797;28;20659;-76
2021/07/08 10:11:56;;;;;;;1.70;1.40;;;24.30;94.50;;;24.54;72.96;98491.59;5103361;28;20642;-76
2021/07/08 10:14:26;;;;;;;1.80;1.60;;;24.30;93.40;;;24.60;73.60;98479.34;5085491;28;20694;-76
2021/07/08 10:16:56;;;;;;;2.47;1.50;;;24.40;93.80;;;24.62;73.96;98475.50;5103706;28;20755;-76
2021/07/08 10:19:25;;;;;;;1.90;1.67;;;24.50;94.50;;;24.68;75.26;98474.78;5102575;28;20625;-76
2021/07/08 10:21:54;;;;;;;2.10;1.40;;;24.50;95.10;;;24.75;75.19;98473.03;5104322;28;20662;-74
2021/07/08 10:24:23;;;;;;;2.00;1.20;;;24.50;95.30;;;24.80;73.03;98474.13;5102150;28;20519;-76
2021/07/08 10:26:51;;;;;;;1.90;1.43;;;24.60;93.50;;;24.89;73.98;98482.91;5068214;28;20228;-76
2021/07/08 10:29:21;;;;;;;1.70;1.37;;;24.70;94.20;;;24.94;72.41;98475.16;5102776;28;20773;-76
2021/07/08 10:31:52;;;;;;;2.20;1.60;;;24.70;93.30;;;24.97;72.28;98472.94;5103536;28;21262;-75
2021/07/08 10:34:23;;;;;;;2.00;1.57;;;24.80;92.50;;;24.96;70.87;98473.13;5102054;28;20690;-76
2021/07/08 10:36:53;;;;;;;4.17;2.43;;;24.80;91.80;;;24.91;70.65;98463.03;5114013;27;21387;-76
2021/07/08 10:39:24;;;;;;;2.90;1.43;;;24.70;90.90;;;24.93;70.56;98465.50;5114375;27;20647;-76
2021/07/08 10:41:55;;;;;;;1.60;1.40;;;24.70;91.00;;;24.93;70.78;98462.84;5101352;28;21234;-76
2021/07/08 10:44:50;;;;;;;1.67;1.57;;;24.70;90.50;;;24.95;72.71;98466.13;5104349;28;21225;-76
2021/07/08 10:47:40;;;;;;;3.67;2.10;;;24.80;91.80;;;24.96;72.59;98455.28;5078315;28;21053;-75
2021/07/08 10:50:37;;;;;;;6.13;4.57;;;24.80;92.40;;;24.99;72.01;98443.41;5081204;28;20641;-76
2021/07/08 10:53:24;;;;;;;2.10;1.90;;;24.80;91.40;;;25.04;73.84;98446.38;5100835;28;20654;-76
2021/07/08 10:55:57;;;;;;;1.50;1.40;;;24.80;93.00;;;25.05;70.99;98448.00;5081229;28;21185;-76
2021/07/08 10:58:47;;;;;;;2.30;1.77;;;24.80;90.80;;;24.97;67.92;98456.09;5099426;28;20765;-75
2021/07/08 11:01:45;;;;;;;1.90;1.70;;;24.70;87.70;;;24.86;69.39;98444.03;5066612;28;20636;-76
2021/07/08 11:04:16;;;;;;;2.20;2.00;;;24.60;87.80;;;24.75;69.12;98447.19;5082918;28;20653;-76
2021/07/08 11:06:47;;;;;;;2.00;1.80;;;24.50;87.70;;;24.66;69.16;98464.28;5085490;28;20735;-75
2021/07/08 11:09:21;;;;;;;2.20;2.00;;;24.40;88.10;;;24.63;70.56;98474.50;5082377;28;20637;-75
2021/07/08 11:12:05;;;;;;;2.17;1.67;;;24.40;89.20;;;24.68;70.23;98488.13;5098459;28;20736;-76
2021/07/08 11:14:44;;;;;;;2.10;1.90;;;24.40;89.30;;;24.63;70.83;98490.53;5103783;28;20223;-75
2021/07/08 11:17:19;;;;;;;2.10;1.80;;;24.30;89.30;;;24.67;72.91;98489.97;5102152;28;20737;-75
2021/07/08 11:19:54;;;;;;;2.27;2.00;;;24.40;91.50;;;24.51;71.59;98494.63;5106769;28;20639;-75
2021/07/08 11:22:42;;;;;;;3.07;2.30;;;24.30;90.30;;;24.49;72.18;98502.00;5125968;27;20759;-75